sensor_id;sensor_type;location;lat;lon;timestamp;pressure;altitude;pressure_sealevel;temperature;humidity
11077;BME280;5591;42.626;23.380;2023-07-22T00:00:14;94144.97;;;27.84;82.27
11077;BME280;5591;42.626;23.380;2023-07-22T00:02:41;94155.19;;;28.01;81.41
11077;BME280;5591;42.626;23.380;2023-07-22T00:05:08;94163.69;;;28.08;80.39
11077;BME280;5591;42.626;23.380;2023-07-22T00:07:36;94171.22;;;27.42;83.42
11077;BME280;5591;42.626;23.380;2023-07-22T00:10:03;94169.25;;;27.10;86.51
11077;BME280;5591;42.626;23.380;2023-07-22T00:12:30;94166.81;;;27.32;83.25
11077;BME280;5591;42.626;23.380;2023-07-22T00:14:58;94158.47;;;27.10;82.15
11077;BME280;5591;42.626;23.380;2023-07-22T00:17:25;94175.41;;;27.16;80.34
11077;BME280;5591;42.626;23.380;2023-07-22T00:19:52;94170.22;;;27.38;79.53
11077;BME280;5591;42.626;23.380;2023-07-22T00:22:20;94191.25;;;26.75;82.85
11077;BME280;5591;42.626;23.380;2023-07-22T00:24:47;94182.50;;;26.88;81.35
11077;BME280;5591;42.626;23.380;2023-07-22T00:27:14;94174.69;;;26.40;83.93
11077;BME280;5591;42.626;23.380;2023-07-22T00:29:41;94181.19;;;26.62;83.08
11077;BME280;5591;42.626;23.380;2023-07-22T00:32:10;94187.75;;;26.56;83.35
11077;BME280;5591;42.626;23.380;2023-07-22T00:34:37;94189.63;;;26.56;83.62
11077;BME280;5591;42.626;23.380;2023-07-22T00:37:04;94185.28;;;26.31;84.34
11077;BME280;5591;42.626;23.380;2023-07-22T00:39:31;94189.03;;;26.59;83.31
11077;BME280;5591;42.626;23.380;2023-07-22T00:41:58;94194.75;;;26.76;82.42
11077;BME280;5591;42.626;23.380;2023-07-22T00:44:27;94189.00;;;26.64;82.79
11077;BME280;5591;42.626;23.380;2023-07-22T00:46:56;94183.44;;;26.27;85.79
11077;BME280;5591;42.626;23.380;2023-07-22T00:49:25;94187.69;;;26.33;85.90
11077;BME280;5591;42.626;23.380;2023-07-22T00:51:52;94186.72;;;26.47;84.25
11077;BME280;5591;42.626;23.380;2023-07-22T00:54:19;94189.69;;;26.22;86.42
11077;BME280;5591;42.626;23.380;2023-07-22T00:56:47;94188.13;;;26.40;88.17
11077;BME280;5591;42.626;23.380;2023-07-22T00:59:14;94190.09;;;26.34;87.20
11077;BME280;5591;42.626;23.380;2023-07-22T01:01:41;94200.25;;;26.14;88.68
11077;BME280;5591;42.626;23.380;2023-07-22T01:04:08;94199.31;;;26.28;88.81
11077;BME280;5591;42.626;23.380;2023-07-22T01:06:37;94198.84;;;26.21;90.11
11077;BME280;5591;42.626;23.380;2023-07-22T01:09:05;94190.69;;;26.03;91.47
11077;BME280;5591;42.626;23.380;2023-07-22T01:11:32;94195.72;;;26.09;92.51
11077;BME280;5591;42.626;23.380;2023-07-22T01:13:59;94172.78;;;25.88;97.62
11077;BME280;5591;42.626;23.380;2023-07-22T01:16:27;94182.34;;;26.04;98.90
11077;BME280;5591;42.626;23.380;2023-07-22T01:18:54;94173.44;;;25.76;100.00
11077;BME280;5591;42.626;23.380;2023-07-22T01:21:23;94171.22;;;25.83;100.00
11077;BME280;5591;42.626;23.380;2023-07-22T01:23:52;94166.28;;;25.61;100.00
11077;BME280;5591;42.626;23.380;2023-07-22T01:26:19;94193.69;;;25.63;100.00
11077;BME280;5591;42.626;23.380;2023-07-22T01:28:46;94156.81;;;25.69;100.00
11077;BME280;5591;42.626;23.380;2023-07-22T01:31:13;94165.25;;;25.57;100.00
11077;BME280;5591;42.626;23.380;2023-07-22T01:33:40;94174.53;;;25.70;100.00
11077;BME280;5591;42.626;23.380;2023-07-22T01:36:07;94160.22;;;25.51;100.00
11077;BME280;5591;42.626;23.380;2023-07-22T01:38:34;94156.69;;;25.55;100.00
11077;BME280;5591;42.626;23.380;2023-07-22T01:41:02;94156.44;;;25.52;100.00
11077;BME280;5591;42.626;23.380;2023-07-22T01:43:29;94160.72;;;25.53;100.00
11077;BME280;5591;42.626;23.380;2023-07-22T01:45:56;94153.53;;;25.43;100.00
11077;BME280;5591;42.626;23.380;2023-07-22T01:48:22;94160.47;;;25.49;100.00
11077;BME280;5591;42.626;23.380;2023-07-22T01:50:50;94148.22;;;25.33;100.00
11077;BME280;5591;42.626;23.380;2023-07-22T01:53:17;94147.47;;;25.28;100.00
11077;BME280;5591;42.626;23.380;2023-07-22T01:55:44;94148.91;;;25.49;100.00
11077;BME280;5591;42.626;23.380;2023-07-22T01:58:12;94150.00;;;25.48;100.00
11077;BME280;5591;42.626;23.380;2023-07-22T02:00:39;94153.06;;;25.31;100.00
11077;BME280;5591;42.626;23.380;2023-07-22T02:03:06;94152.25;;;25.36;100.00
11077;BME280;5591;42.626;23.380;2023-07-22T02:05:33;94150.63;;;25.40;100.00
11077;BME280;5591;42.626;23.380;2023-07-22T02:08:00;94140.06;;;25.48;100.00
11077;BME280;5591;42.626;23.380;2023-07-22T02:10:26;94147.03;;;25.49;100.00
11077;BME280;5591;42.626;23.380;2023-07-22T02:12:53;94144.34;;;25.49;100.00
11077;BME280;5591;42.626;23.380;2023-07-22T02:15:21;94137.00;;;25.26;100.00
11077;BME280;5591;42.626;23.380;2023-07-22T02:17:49;94150.97;;;25.28;100.00
11077;BME280;5591;42.626;23.380;2023-07-22T02:20:16;94150.19;;;25.23;100.00
11077;BME280;5591;42.626;23.380;2023-07-22T02:22:43;94151.03;;;25.13;100.00
11077;BME280;5591;42.626;23.380;2023-07-22T02:25:10;94129.16;;;24.91;100.00
11077;BME280;5591;42.626;23.380;2023-07-22T02:27:37;94153.25;;;25.01;100.00
11077;BME280;5591;42.626;23.380;2023-07-22T02:30:07;94156.53;;;24.93;100.00
11077;BME280;5591;42.626;23.380;2023-07-22T02:32:38;94155.50;;;24.84;100.00
11077;BME280;5591;42.626;23.380;2023-07-22T02:35:06;94153.63;;;24.85;100.00
11077;BME280;5591;42.626;23.380;2023-07-22T02:37:33;94141.00;;;24.80;100.00
11077;BME280;5591;42.626;23.380;2023-07-22T02:40:00;94170.03;;;24.83;100.00
11077;BME280;5591;42.626;23.380;2023-07-22T02:42:33;94161.94;;;24.88;100.00
11077;BME280;5591;42.626;23.380;2023-07-22T02:45:00;94150.16;;;24.79;100.00
11077;BME280;5591;42.626;23.380;2023-07-22T02:47:27;94158.56;;;24.68;100.00
11077;BME280;5591;42.626;23.380;2023-07-22T02:49:55;94164.66;;;24.83;100.00
11077;BME280;5591;42.626;23.380;2023-07-22T02:52:22;94155.50;;;24.84;100.00
11077;BME280;5591;42.626;23.380;2023-07-22T02:55:04;94165.19;;;24.80;100.00
11077;BME280;5591;42.626;23.380;2023-07-22T02:57:32;94167.03;;;24.85;100.00
11077;BME280;5591;42.626;23.380;2023-07-22T02:59:59;94156.34;;;24.80;100.00
11077;BME280;5591;42.626;23.380;2023-07-22T03:02:25;94169.03;;;24.64;100.00
11077;BME280;5591;42.626;23.380;2023-07-22T03:04:52;94171.94;;;24.78;100.00
11077;BME280;5591;42.626;23.380;2023-07-22T03:07:20;94154.69;;;24.89;100.00
11077;BME280;5591;42.626;23.380;2023-07-22T03:09:47;94165.19;;;24.80;100.00
11077;BME280;5591;42.626;23.380;2023-07-22T03:12:14;94163.00;;;24.87;100.00
11077;BME280;5591;42.626;23.380;2023-07-22T03:14:41;94168.56;;;25.01;100.00
11077;BME280;5591;42.626;23.380;2023-07-22T03:17:07;94171.47;;;25.09;100.00
11077;BME280;5591;42.626;23.380;2023-07-22T03:19:34;94167.38;;;25.17;100.00
11077;BME280;5591;42.626;23.380;2023-07-22T03:22:01;94167.91;;;25.29;100.00
11077;BME280;5591;42.626;23.380;2023-07-22T03:24:30;94163.41;;;25.09;100.00
11077;BME280;5591;42.626;23.380;2023-07-22T03:26:56;94158.78;;;25.20;100.00
11077;BME280;5591;42.626;23.380;2023-07-22T03:29:23;94165.97;;;25.34;100.00
11077;BME280;5591;42.626;23.380;2023-07-22T03:31:50;94169.81;;;25.23;100.00
11077;BME280;5591;42.626;23.380;2023-07-22T03:34:17;94171.34;;;25.34;100.00
11077;BME280;5591;42.626;23.380;2023-07-22T03:36:44;94171.38;;;25.29;100.00
11077;BME280;5591;42.626;23.380;2023-07-22T03:39:11;94169.19;;;25.36;100.00
11077;BME280;5591;42.626;23.380;2023-07-22T03:41:40;94178.34;;;25.30;100.00
11077;BME280;5591;42.626;23.380;2023-07-22T03:44:06;94186.91;;;25.37;100.00
11077;BME280;5591;42.626;23.380;2023-07-22T03:46:33;94186.09;;;25.37;100.00
11077;BME280;5591;42.626;23.380;2023-07-22T03:49:00;94200.63;;;25.36;100.00
11077;BME280;5591;42.626;23.380;2023-07-22T03:51:27;94206.19;;;25.44;100.00
11077;BME280;5591;42.626;23.380;2023-07-22T03:53:53;94211.03;;;25.47;100.00
11077;BME280;5591;42.626;23.380;2023-07-22T03:56:21;94207.75;;;25.55;100.00
11077;BME280;5591;42.626;23.380;2023-07-22T03:58:50;94211.88;;;25.38;100.00
11077;BME280;5591;42.626;23.380;2023-07-22T04:01:17;94208.88;;;25.49;100.00
11077;BME280;5591;42.626;23.380;2023-07-22T04:03:44;94216.31;;;25.19;100.00
11077;BME280;5591;42.626;23.380;2023-07-22T04:06:11;94214.69;;;25.23;100.00
11077;BME280;5591;42.626;23.380;2023-07-22T04:08:38;94216.56;;;25.17;100.00
11077;BME280;5591;42.626;23.380;2023-07-22T04:11:04;94218.34;;;25.37;100.00
11077;BME280;5591;42.626;23.380;2023-07-22T04:13:32;94193.91;;;24.85;100.00
11077;BME280;5591;42.626;23.380;2023-07-22T04:16:00;94213.00;;;24.83;100.00
11077;BME280;5591;42.626;23.380;2023-07-22T04:18:27;94213.84;;;25.27;100.00
11077;BME280;5591;42.626;23.380;2023-07-22T04:20:58;94207.47;;;25.57;100.00
11077;BME280;5591;42.626;23.380;2023-07-22T04:23:25;94212.53;;;25.25;100.00
11077;BME280;5591;42.626;23.380;2023-07-22T04:25:52;94218.59;;;25.40;100.00
11077;BME280;5591;42.626;23.380;2023-07-22T04:28:19;94213.09;;;25.60;100.00
11077;BME280;5591;42.626;23.380;2023-07-22T04:30:55;94229.38;;;25.74;100.00
11077;BME280;5591;42.626;23.380;2023-07-22T04:33:24;94221.09;;;26.03;100.00
11077;BME280;5591;42.626;23.380;2023-07-22T04:35:53;94237.03;;;25.13;100.00
11077;BME280;5591;42.626;23.380;2023-07-22T04:38:21;94230.66;;;24.89;100.00
11077;BME280;5591;42.626;23.380;2023-07-22T04:40:48;94234.47;;;24.83;100.00
11077;BME280;5591;42.626;23.380;2023-07-22T04:43:14;94234.72;;;25.45;100.00
11077;BME280;5591;42.626;23.380;2023-07-22T04:45:44;94232.84;;;25.41;100.00
11077;BME280;5591;42.626;23.380;2023-07-22T04:48:14;94229.81;;;25.90;100.00
11077;BME280;5591;42.626;23.380;2023-07-22T04:50:42;94225.25;;;26.19;100.00
11077;BME280;5591;42.626;23.380;2023-07-22T04:53:10;94231.41;;;25.91;100.00
11077;BME280;5591;42.626;23.380;2023-07-22T04:55:39;94255.78;;;26.05;100.00
11077;BME280;5591;42.626;23.380;2023-07-22T04:58:05;94226.41;;;26.08;100.00
11077;BME280;5591;42.626;23.380;2023-07-22T05:00:33;94221.78;;;26.42;99.47
11077;BME280;5591;42.626;23.380;2023-07-22T05:03:00;94227.50;;;26.36;100.00
11077;BME280;5591;42.626;23.380;2023-07-22T05:05:27;94227.81;;;26.58;98.92
11077;BME280;5591;42.626;23.380;2023-07-22T05:07:56;94229.16;;;26.32;100.00
11077;BME280;5591;42.626;23.380;2023-07-22T05:10:23;94234.13;;;26.20;100.00
11077;BME280;5591;42.626;23.380;2023-07-22T05:12:50;94239.84;;;25.75;100.00
11077;BME280;5591;42.626;23.380;2023-07-22T05:15:16;94238.59;;;26.01;100.00
11077;BME280;5591;42.626;23.380;2023-07-22T05:17:43;94244.94;;;26.15;100.00
11077;BME280;5591;42.626;23.380;2023-07-22T05:20:11;94250.63;;;26.37;100.00
11077;BME280;5591;42.626;23.380;2023-07-22T05:22:39;94246.75;;;26.53;100.00
11077;BME280;5591;42.626;23.380;2023-07-22T05:25:08;94249.91;;;26.83;98.33
11077;BME280;5591;42.626;23.380;2023-07-22T05:27:35;94249.72;;;26.75;97.74
11077;BME280;5591;42.626;23.380;2023-07-22T05:30:02;94249.34;;;26.63;99.77
11077;BME280;5591;42.626;23.380;2023-07-22T05:32:29;94182.25;;;25.81;100.00
11077;BME280;5591;42.626;23.380;2023-07-22T05:34:56;94245.69;;;26.20;100.00
11077;BME280;5591;42.626;23.380;2023-07-22T05:37:23;94244.84;;;26.25;100.00
11077;BME280;5591;42.626;23.380;2023-07-22T05:39:50;94244.06;;;26.48;100.00
11077;BME280;5591;42.626;23.380;2023-07-22T05:42:18;94273.44;;;26.44;100.00
11077;BME280;5591;42.626;23.380;2023-07-22T05:44:45;94241.88;;;26.78;100.00
11077;BME280;5591;42.626;23.380;2023-07-22T05:47:12;94234.88;;;26.49;100.00
11077;BME280;5591;42.626;23.380;2023-07-22T05:49:39;94243.66;;;26.88;100.00
11077;BME280;5591;42.626;23.380;2023-07-22T05:52:06;94244.91;;;26.95;100.00
11077;BME280;5591;42.626;23.380;2023-07-22T05:54:33;94249.38;;;27.05;99.76
11077;BME280;5591;42.626;23.380;2023-07-22T05:57:00;94258.56;;;26.80;100.00
11077;BME280;5591;42.626;23.380;2023-07-22T05:59:30;94246.97;;;26.80;100.00
11077;BME280;5591;42.626;23.380;2023-07-22T06:01:57;94246.91;;;26.61;100.00
11077;BME280;5591;42.626;23.380;2023-07-22T06:04:24;94245.44;;;26.74;100.00
11077;BME280;5591;42.626;23.380;2023-07-22T06:06:51;94246.81;;;26.95;100.00
11077;BME280;5591;42.626;23.380;2023-07-22T06:09:18;94250.56;;;27.17;99.87
11077;BME280;5591;42.626;23.380;2023-07-22T06:11:45;94258.16;;;27.34;98.80
11077;BME280;5591;42.626;23.380;2023-07-22T06:14:12;94261.63;;;27.95;95.15
11077;BME280;5591;42.626;23.380;2023-07-22T06:16:40;94264.88;;;27.55;96.94
11077;BME280;5591;42.626;23.380;2023-07-22T06:19:07;94272.81;;;27.28;99.79
11077;BME280;5591;42.626;23.380;2023-07-22T06:21:34;94281.00;;;27.97;94.56
11077;BME280;5591;42.626;23.380;2023-07-22T06:24:01;94281.84;;;28.29;91.87
11077;BME280;5591;42.626;23.380;2023-07-22T06:26:27;94290.25;;;27.72;95.40
11077;BME280;5591;42.626;23.380;2023-07-22T06:28:54;94288.19;;;28.20;92.02
11077;BME280;5591;42.626;23.380;2023-07-22T06:31:22;94294.59;;;27.73;94.54
11077;BME280;5591;42.626;23.380;2023-07-22T06:33:50;94298.44;;;27.67;93.77
11077;BME280;5591;42.626;23.380;2023-07-22T06:36:17;94292.78;;;28.38;90.78
11077;BME280;5591;42.626;23.380;2023-07-22T06:38:44;94293.97;;;28.77;86.86
11077;BME280;5591;42.626;23.380;2023-07-22T06:41:10;94293.75;;;28.28;89.51
11077;BME280;5591;42.626;23.380;2023-07-22T06:43:37;94292.47;;;28.07;92.23
11077;BME280;5591;42.626;23.380;2023-07-22T06:46:04;94302.06;;;28.63;88.85
11077;BME280;5591;42.626;23.380;2023-07-22T06:48:31;94305.31;;;28.47;90.48
11077;BME280;5591;42.626;23.380;2023-07-22T06:50:59;94303.81;;;28.41;90.21
11077;BME280;5591;42.626;23.380;2023-07-22T06:53:26;94306.81;;;28.40;89.37
11077;BME280;5591;42.626;23.380;2023-07-22T06:55:53;94302.22;;;28.85;87.02
11077;BME280;5591;42.626;23.380;2023-07-22T06:58:20;94248.66;;;29.28;83.00
11077;BME280;5591;42.626;23.380;2023-07-22T07:00:47;94293.22;;;30.06;79.36
11077;BME280;5591;42.626;23.380;2023-07-22T07:03:14;94298.09;;;30.40;78.15
11077;BME280;5591;42.626;23.380;2023-07-22T07:05:41;94286.50;;;30.48;75.31
11077;BME280;5591;42.626;23.380;2023-07-22T07:08:09;94290.28;;;30.38;76.58
11077;BME280;5591;42.626;23.380;2023-07-22T07:10:37;94278.94;;;30.36;75.22
11077;BME280;5591;42.626;23.380;2023-07-22T07:13:05;94289.06;;;30.66;74.84
11077;BME280;5591;42.626;23.380;2023-07-22T07:15:31;94287.59;;;30.69;75.01
11077;BME280;5591;42.626;23.380;2023-07-22T07:17:58;94284.50;;;29.96;78.58
11077;BME280;5591;42.626;23.380;2023-07-22T07:20:25;94286.00;;;30.46;77.15
11077;BME280;5591;42.626;23.380;2023-07-22T07:22:52;94281.69;;;30.67;75.19
11077;BME280;5591;42.626;23.380;2023-07-22T07:25:20;94276.38;;;31.14;73.10
11077;BME280;5591;42.626;23.380;2023-07-22T07:27:47;94280.38;;;31.17;72.95
11077;BME280;5591;42.626;23.380;2023-07-22T07:30:14;94263.34;;;31.42;71.22
11077;BME280;5591;42.626;23.380;2023-07-22T07:32:41;94261.81;;;31.58;69.49
11077;BME280;5591;42.626;23.380;2023-07-22T07:35:08;94263.06;;;31.60;69.92
11077;BME280;5591;42.626;23.380;2023-07-22T07:37:36;94203.66;;;31.42;70.19
11077;BME280;5591;42.626;23.380;2023-07-22T07:40:03;94263.91;;;31.69;69.42
11077;BME280;5591;42.626;23.380;2023-07-22T07:42:31;94255.88;;;31.47;70.83
11077;BME280;5591;42.626;23.380;2023-07-22T07:44:58;94257.94;;;31.42;71.79
11077;BME280;5591;42.626;23.380;2023-07-22T07:47:25;94251.72;;;31.66;70.43
11077;BME280;5591;42.626;23.380;2023-07-22T07:49:52;94259.94;;;32.09;67.87
11077;BME280;5591;42.626;23.380;2023-07-22T07:52:18;94267.78;;;32.36;66.03
11077;BME280;5591;42.626;23.380;2023-07-22T07:54:45;94262.13;;;32.66;63.86
11077;BME280;5591;42.626;23.380;2023-07-22T07:57:12;94246.00;;;32.53;62.88
11077;BME280;5591;42.626;23.380;2023-07-22T07:59:40;94257.69;;;32.53;65.32
11077;BME280;5591;42.626;23.380;2023-07-22T08:02:07;94257.47;;;32.67;64.93
11077;BME280;5591;42.626;23.380;2023-07-22T08:04:36;94246.78;;;32.62;64.57
11077;BME280;5591;42.626;23.380;2023-07-22T08:07:03;94253.63;;;32.85;63.69
11077;BME280;5591;42.626;23.380;2023-07-22T08:09:30;94246.28;;;32.77;62.51
11077;BME280;5591;42.626;23.380;2023-07-22T08:11:57;94251.09;;;32.71;63.77
11077;BME280;5591;42.626;23.380;2023-07-22T08:14:24;94255.06;;;32.91;62.43
11077;BME280;5591;42.626;23.380;2023-07-22T08:16:53;94250.59;;;32.69;64.41
11077;BME280;5591;42.626;23.380;2023-07-22T08:19:20;94243.06;;;32.83;63.02
11077;BME280;5591;42.626;23.380;2023-07-22T08:21:47;94175.25;;;31.90;64.05
11077;BME280;5591;42.626;23.380;2023-07-22T08:24:14;94243.31;;;32.19;66.83
11077;BME280;5591;42.626;23.380;2023-07-22T08:26:40;94237.75;;;32.87;63.08
11077;BME280;5591;42.626;23.380;2023-07-22T08:29:07;94234.94;;;32.75;63.83
11077;BME280;5591;42.626;23.380;2023-07-22T08:31:34;94242.75;;;33.22;62.81
11077;BME280;5591;42.626;23.380;2023-07-22T08:34:02;94240.41;;;33.70;59.99
11077;BME280;5591;42.626;23.380;2023-07-22T08:36:29;94245.13;;;33.61;60.01
11077;BME280;5591;42.626;23.380;2023-07-22T08:38:56;94175.00;;;33.50;59.44
11077;BME280;5591;42.626;23.380;2023-07-22T08:41:24;94232.44;;;34.06;57.06
11077;BME280;5591;42.626;23.380;2023-07-22T08:43:54;94236.44;;;34.29;57.97
11077;BME280;5591;42.626;23.380;2023-07-22T08:46:22;94227.63;;;34.44;54.87
11077;BME280;5591;42.626;23.380;2023-07-22T08:48:53;94224.72;;;34.61;53.80
11077;BME280;5591;42.626;23.380;2023-07-22T08:51:22;94214.47;;;33.93;56.98
11077;BME280;5591;42.626;23.380;2023-07-22T08:53:50;94233.38;;;34.10;56.94
11077;BME280;5591;42.626;23.380;2023-07-22T08:56:18;94203.59;;;33.64;59.19
11077;BME280;5591;42.626;23.380;2023-07-22T08:58:46;94195.16;;;33.98;58.06
11077;BME280;5591;42.626;23.380;2023-07-22T09:01:13;94185.06;;;33.99;59.23
11077;BME280;5591;42.626;23.380;2023-07-22T09:03:40;94193.69;;;34.53;57.58
11077;BME280;5591;42.626;23.380;2023-07-22T09:06:08;94194.72;;;34.61;56.27
11077;BME280;5591;42.626;23.380;2023-07-22T09:08:37;94192.69;;;34.05;59.10
11077;BME280;5591;42.626;23.380;2023-07-22T09:11:05;94124.72;;;33.88;59.12
11077;BME280;5591;42.626;23.380;2023-07-22T09:13:33;94180.88;;;34.22;58.46
11077;BME280;5591;42.626;23.380;2023-07-22T09:16:02;94190.00;;;34.38;58.13
11077;BME280;5591;42.626;23.380;2023-07-22T09:18:32;94191.53;;;34.59;58.37
11077;BME280;5591;42.626;23.380;2023-07-22T09:20:59;94182.72;;;34.09;58.86
11077;BME280;5591;42.626;23.380;2023-07-22T09:23:32;94191.59;;;33.86;59.38
11077;BME280;5591;42.626;23.380;2023-07-22T09:26:09;94186.31;;;34.22;58.49
11077;BME280;5591;42.626;23.380;2023-07-22T09:28:52;94151.38;;;33.62;59.16
11077;BME280;5591;42.626;23.380;2023-07-22T09:31:20;94177.97;;;34.18;58.25
11077;BME280;5591;42.626;23.380;2023-07-22T09:33:48;94174.94;;;34.64;59.17
11077;BME280;5591;42.626;23.380;2023-07-22T09:36:16;94105.94;;;34.07;56.70
11077;BME280;5591;42.626;23.380;2023-07-22T09:38:42;94182.16;;;34.80;55.95
11077;BME280;5591;42.626;23.380;2023-07-22T09:41:11;94188.75;;;34.91;56.23
11077;BME280;5591;42.626;23.380;2023-07-22T09:43:39;94179.22;;;35.57;54.13
11077;BME280;5591;42.626;23.380;2023-07-22T09:46:07;94174.56;;;35.46;53.24
11077;BME280;5591;42.626;23.380;2023-07-22T09:48:41;94161.38;;;35.87;52.34
11077;BME280;5591;42.626;23.380;2023-07-22T09:51:12;94171.91;;;36.56;48.26
11077;BME280;5591;42.626;23.380;2023-07-22T09:53:44;94131.78;;;36.17;48.05
11077;BME280;5591;42.626;23.380;2023-07-22T09:56:12;94170.78;;;34.02;55.41
11077;BME280;5591;42.626;23.380;2023-07-22T09:58:40;94189.22;;;34.17;56.66
11077;BME280;5591;42.626;23.380;2023-07-22T10:01:07;94147.94;;;35.07;53.74
11077;BME280;5591;42.626;23.380;2023-07-22T10:03:37;94154.72;;;35.73;51.22
11077;BME280;5591;42.626;23.380;2023-07-22T10:06:05;94148.31;;;36.20;49.52
11077;BME280;5591;42.626;23.380;2023-07-22T10:08:34;94127.78;;;36.42;48.57
11077;BME280;5591;42.626;23.380;2023-07-22T10:11:03;94153.41;;;36.65;47.19
11077;BME280;5591;42.626;23.380;2023-07-22T10:13:33;94113.25;;;35.83;48.72
11077;BME280;5591;42.626;23.380;2023-07-22T10:16:00;94149.47;;;36.35;47.00
11077;BME280;5591;42.626;23.380;2023-07-22T10:18:28;94160.63;;;36.14;47.22
11077;BME280;5591;42.626;23.380;2023-07-22T10:20:57;94163.13;;;36.62;44.89
11077;BME280;5591;42.626;23.380;2023-07-22T10:23:25;94164.22;;;36.73;44.96
11077;BME280;5591;42.626;23.380;2023-07-22T10:25:53;94167.19;;;36.84;44.06
11077;BME280;5591;42.626;23.380;2023-07-22T10:28:21;94140.53;;;36.65;45.07
11077;BME280;5591;42.626;23.380;2023-07-22T10:30:51;94151.56;;;37.15;45.09
11077;BME280;5591;42.626;23.380;2023-07-22T10:33:18;94144.50;;;37.64;43.39
11077;BME280;5591;42.626;23.380;2023-07-22T10:36:03;94152.94;;;38.09;41.48
11077;BME280;5591;42.626;23.380;2023-07-22T10:38:30;94102.34;;;37.87;41.90
11077;BME280;5591;42.626;23.380;2023-07-22T10:40:58;94146.34;;;37.94;41.76
11077;BME280;5591;42.626;23.380;2023-07-22T10:43:26;94143.19;;;38.72;40.17
11077;BME280;5591;42.626;23.380;2023-07-22T10:45:56;94137.75;;;38.75;38.90
11077;BME280;5591;42.626;23.380;2023-07-22T10:48:26;94149.44;;;38.31;39.75
11077;BME280;5591;42.626;23.380;2023-07-22T10:50:57;94116.06;;;37.19;38.95
11077;BME280;5591;42.626;23.380;2023-07-22T10:53:28;94143.69;;;35.57;42.14
11077;BME280;5591;42.626;23.380;2023-07-22T10:56:12;94136.25;;;36.09;41.08
11077;BME280;5591;42.626;23.380;2023-07-22T10:58:58;94120.31;;;37.51;38.89
11077;BME280;5591;42.626;23.380;2023-07-22T11:01:39;94135.69;;;38.08;35.77
11077;BME280;5591;42.626;23.380;2023-07-22T11:04:11;94124.59;;;38.43;35.42
11077;BME280;5591;42.626;23.380;2023-07-22T11:06:39;94107.59;;;38.15;34.53
11077;BME280;5591;42.626;23.380;2023-07-22T11:09:06;94120.28;;;37.85;33.57
11077;BME280;5591;42.626;23.380;2023-07-22T11:11:35;94114.53;;;37.71;34.07
11077;BME280;5591;42.626;23.380;2023-07-22T11:14:14;94106.88;;;37.61;33.67
11077;BME280;5591;42.626;23.380;2023-07-22T11:16:45;94108.53;;;38.22;33.25
11077;BME280;5591;42.626;23.380;2023-07-22T11:19:12;94112.19;;;38.49;33.40
11077;BME280;5591;42.626;23.380;2023-07-22T11:21:39;94104.97;;;38.41;33.05
11077;BME280;5591;42.626;23.380;2023-07-22T11:24:07;94113.09;;;38.15;33.02
11077;BME280;5591;42.626;23.380;2023-07-22T11:26:34;94113.22;;;37.84;33.60
11077;BME280;5591;42.626;23.380;2023-07-22T11:29:02;94122.25;;;38.22;33.09
11077;BME280;5591;42.626;23.380;2023-07-22T11:31:33;94116.09;;;38.93;32.70
11077;BME280;5591;42.626;23.380;2023-07-22T11:34:01;94090.09;;;38.64;31.33
11077;BME280;5591;42.626;23.380;2023-07-22T11:36:28;94082.59;;;38.84;32.07
11077;BME280;5591;42.626;23.380;2023-07-22T11:39:01;94065.28;;;39.58;31.94
11077;BME280;5591;42.626;23.380;2023-07-22T11:41:29;94089.16;;;39.80;31.24
11077;BME280;5591;42.626;23.380;2023-07-22T11:43:57;94072.31;;;40.14;30.18
11077;BME280;5591;42.626;23.380;2023-07-22T11:46:24;94073.44;;;39.51;31.18
11077;BME280;5591;42.626;23.380;2023-07-22T11:48:51;94080.66;;;39.33;31.17
11077;BME280;5591;42.626;23.380;2023-07-22T11:51:21;94076.53;;;41.28;28.82
11077;BME280;5591;42.626;23.380;2023-07-22T11:53:49;94070.09;;;42.91;27.89
11077;BME280;5591;42.626;23.380;2023-07-22T11:56:21;94074.16;;;41.94;28.35
11077;BME280;5591;42.626;23.380;2023-07-22T11:58:51;94074.72;;;42.49;27.65
11077;BME280;5591;42.626;23.380;2023-07-22T12:01:19;94073.34;;;39.44;31.18
11077;BME280;5591;42.626;23.380;2023-07-22T12:03:46;94083.97;;;40.04;29.45
11077;BME280;5591;42.626;23.380;2023-07-22T12:06:13;94067.56;;;40.91;29.49
11077;BME280;5591;42.626;23.380;2023-07-22T12:08:46;94046.34;;;40.91;29.33
11077;BME280;5591;42.626;23.380;2023-07-22T12:11:17;94073.97;;;39.63;31.19
11077;BME280;5591;42.626;23.380;2023-07-22T12:13:45;94078.63;;;40.15;30.78
11077;BME280;5591;42.626;23.380;2023-07-22T12:16:21;94052.16;;;40.43;29.66
11077;BME280;5591;42.626;23.380;2023-07-22T12:18:49;94056.91;;;40.86;28.93
11077;BME280;5591;42.626;23.380;2023-07-22T12:21:16;94067.09;;;40.06;29.23
11077;BME280;5591;42.626;23.380;2023-07-22T12:23:45;94060.06;;;42.20;27.65
11077;BME280;5591;42.626;23.380;2023-07-22T12:26:12;94039.63;;;42.53;27.86
11077;BME280;5591;42.626;23.380;2023-07-22T12:28:39;94053.75;;;40.87;29.24
11077;BME280;5591;42.626;23.380;2023-07-22T12:31:05;94056.75;;;39.96;30.57
11077;BME280;5591;42.626;23.380;2023-07-22T12:33:32;94065.28;;;38.80;31.92
11077;BME280;5591;42.626;23.380;2023-07-22T12:35:59;94045.44;;;38.90;31.80
11077;BME280;5591;42.626;23.380;2023-07-22T12:38:26;94046.31;;;40.12;31.07
11077;BME280;5591;42.626;23.380;2023-07-22T12:40:54;94053.66;;;40.77;29.28
11077;BME280;5591;42.626;23.380;2023-07-22T12:43:21;94053.03;;;41.48;28.68
11077;BME280;5591;42.626;23.380;2023-07-22T12:45:48;94057.06;;;41.64;28.90
11077;BME280;5591;42.626;23.380;2023-07-22T12:48:15;94044.22;;;43.95;27.08
11077;BME280;5591;42.626;23.380;2023-07-22T12:50:42;94033.94;;;43.96;26.90
11077;BME280;5591;42.626;23.380;2023-07-22T12:53:09;94046.47;;;44.25;26.44
11077;BME280;5591;42.626;23.380;2023-07-22T12:55:36;94042.47;;;42.91;26.67
11077;BME280;5591;42.626;23.380;2023-07-22T12:58:03;94045.59;;;43.00;27.13
11077;BME280;5591;42.626;23.380;2023-07-22T13:00:30;94045.59;;;43.00;27.46